Time;durP1;ratioP1;P1;durP2;ratioP2;P2;SDS_P1;SDS_P2;PMS_P1;PMS_P2;Temp;Humidity;BMP_temperature;BMP_pressure;BME280_temperature;BME280_humidity;BME280_pressure;Samples;Min_cycle;Max_cycle;Signal;HPM_P1;HPM_P2
2021/09/01 00:00:25;;;;;;;15.38;1.98;;;;;;;;;;4981253;28;20035;-55
2021/09/01 00:02:54;;;;;;;10.10;2.17;;;;;;;;;;4977933;28;20046;-52
2021/09/01 00:05:21;;;;;;;11.48;2.10;;;;;;;;;;4990105;28;20050;-51
2021/09/01 00:07:47;;;;;;;12.80;2.42;;;;;;;;;;4979658;28;20078;-55
2021/09/01 00:10:15;;;;;;;13.23;2.42;;;;;;;;;;4969584;28;20061;-56
2021/09/01 00:12:43;;;;;;;11.60;1.90;;;;;;;;;;4974136;28;20043;-55
2021/09/01 00:15:10;;;;;;;10.13;2.15;;;;;;;;;;4974262;28;20038;-53
2021/09/01 00:17:37;;;;;;;9.48;2.25;;;;;;;;;;4976274;28;20035;-57
2021/09/01 00:20:06;;;;;;;19.45;2.28;;;;;;;;;;4973189;28;20050;-55
2021/09/01 00:22:33;;;;;;;13.00;2.15;;;;;;;;;;4975242;28;20038;-53
2021/09/01 00:24:59;;;;;;;12.40;2.72;;;;;;;;;;4972716;28;20042;-53
2021/09/01 00:27:28;;;;;;;12.95;2.53;;;;;;;;;;4978958;28;20106;-55
2021/09/01 00:29:55;;;;;;;10.27;2.05;;;;;;;;;;4976681;28;20046;-54
2021/09/01 00:32:21;;;;;;;10.05;2.20;;;;;;;;;;4980310;28;20047;-55
2021/09/01 00:34:48;;;;;;;9.23;2.25;;;;;;;;;;4974574;28;20046;-55
2021/09/01 00:37:14;;;;;;;10.23;2.28;;;;;;;;;;4980704;28;20039;-56
2021/09/01 00:39:41;;;;;;;11.80;2.65;;;;;;;;;;4977824;28;20031;-56
2021/09/01 00:42:07;;;;;;;10.02;1.98;;;;;;;;;;4980186;28;20115;-56
2021/09/01 00:44:36;;;;;;;12.00;2.15;;;;;;;;;;4977471;28;20054;-55
2021/09/01 00:47:03;;;;;;;12.63;2.10;;;;;;;;;;4978703;28;20046;-55
2021/09/01 00:49:30;;;;;;;13.73;2.65;;;;;;;;;;4979043;28;20050;-55
2021/09/01 00:51:57;;;;;;;13.77;2.53;;;;;;;;;;4974303;28;20043;-54
2021/09/01 00:54:23;;;;;;;11.00;2.25;;;;;;;;;;4976957;28;20038;-55
2021/09/01 00:56:52;;;;;;;13.45;2.45;;;;;;;;;;4974625;28;20047;-55
2021/09/01 00:59:19;;;;;;;18.08;2.20;;;;;;;;;;4976389;28;20039;-55
2021/09/01 01:01:47;;;;;;;17.83;2.88;;;;;;;;;;4976031;28;20140;-50
2021/09/01 01:04:14;;;;;;;10.43;2.35;;;;;;;;;;4986130;28;20045;-53
2021/09/01 01:06:40;;;;;;;10.40;2.38;;;;;;;;;;4975574;28;20034;-54
2021/09/01 01:09:08;;;;;;;10.07;2.20;;;;;;;;;;4983455;28;20030;-54
2021/09/01 01:11:34;;;;;;;12.45;2.22;;;;;;;;;;4980319;28;20057;-53
2021/09/01 01:14:01;;;;;;;13.57;2.42;;;;;;;;;;4982469;28;20070;-52
2021/09/01 01:16:27;;;;;;;12.65;2.60;;;;;;;;;;4978925;28;20049;-55
2021/09/01 01:18:55;;;;;;;10.70;2.45;;;;;;;;;;4980736;28;20042;-55
2021/09/01 01:21:23;;;;;;;13.07;2.30;;;;;;;;;;4977622;28;20061;-55
2021/09/01 01:23:50;;;;;;;14.35;2.55;;;;;;;;;;4982400;28;20125;-54
2021/09/01 01:26:20;;;;;;;11.48;2.30;;;;;;;;;;4980818;28;20058;-55
2021/09/01 01:28:51;;;;;;;15.63;2.28;;;;;;;;;;4977741;28;20034;-55
2021/09/01 01:31:18;;;;;;;7.55;2.53;;;;;;;;;;4975658;28;20061;-56
2021/09/01 01:33:44;;;;;;;7.40;2.22;;;;;;;;;;4981730;28;20042;-55
2021/09/01 01:36:11;;;;;;;18.45;2.40;;;;;;;;;;4999904;28;20057;-55
2021/09/01 01:38:37;;;;;;;11.82;2.33;;;;;;;;;;4979189;28;20054;-56
2021/09/01 01:41:04;;;;;;;15.02;2.35;;;;;;;;;;4979577;28;20050;-55
2021/09/01 01:43:36;;;;;;;11.20;2.45;;;;;;;;;;4979168;28;20042;-56
2021/09/01 01:46:03;;;;;;;12.68;2.65;;;;;;;;;;4999964;28;20058;-55
2021/09/01 01:48:29;;;;;;;11.57;2.17;;;;;;;;;;4977194;28;20053;-54
2021/09/01 01:50:56;;;;;;;13.38;2.50;;;;;;;;;;4982938;28;20039;-55
2021/09/01 01:53:22;;;;;;;9.93;3.28;;;;;;;;;;4977536;28;20133;-55
2021/09/01 01:55:49;;;;;;;14.82;2.38;;;;;;;;;;4978278;28;20050;-56
2021/09/01 01:58:15;;;;;;;11.18;2.58;;;;;;;;;;4979197;28;20062;-55
2021/09/01 02:00:43;;;;;;;12.45;2.25;;;;;;;;;;4981697;28;20039;-52
2021/09/01 02:03:10;;;;;;;13.13;2.63;;;;;;;;;;4982236;28;20074;-55
2021/09/01 02:05:37;;;;;;;11.13;2.25;;;;;;;;;;5002434;28;20034;-54
2021/09/01 02:08:05;;;;;;;10.32;2.58;;;;;;;;;;4978132;28;20131;-55
2021/09/01 02:10:32;;;;;;;10.30;2.35;;;;;;;;;;4987411;28;20115;-56
2021/09/01 02:12:58;;;;;;;11.45;2.70;;;;;;;;;;4966903;28;20046;-55
2021/09/01 02:15:25;;;;;;;14.73;1.90;;;;;;;;;;5005642;28;20053;-55
2021/09/01 02:17:53;;;;;;;13.15;2.97;;;;;;;;;;5006250;28;20033;-53
2021/09/01 02:20:19;;;;;;;13.18;2.75;;;;;;;;;;4964244;28;20039;-53
2021/09/01 02:22:47;;;;;;;10.50;2.42;;;;;;;;;;4967480;28;20043;-55
2021/09/01 02:25:14;;;;;;;14.18;2.53;;;;;;;;;;4964258;28;20043;-56
2021/09/01 02:27:41;;;;;;;11.43;2.70;;;;;;;;;;4967208;28;20038;-55
2021/09/01 02:30:08;;;;;;;11.18;2.20;;;;;;;;;;5007163;28;20064;-53
2021/09/01 02:32:35;;;;;;;11.45;2.33;;;;;;;;;;5004738;28;20081;-56
2021/09/01 02:35:03;;;;;;;13.60;2.45;;;;;;;;;;5002178;28;20130;-53
2021/09/01 02:37:31;;;;;;;15.85;2.60;;;;;;;;;;5004817;28;20045;-55
2021/09/01 02:39:57;;;;;;;14.98;2.30;;;;;;;;;;5003133;28;20317;-53
2021/09/01 02:42:24;;;;;;;17.40;3.70;;;;;;;;;;4982902;28;20101;-54
2021/09/01 02:44:50;;;;;;;17.02;3.00;;;;;;;;;;4984467;28;20030;-54
2021/09/01 02:47:28;;;;;;;14.15;2.38;;;;;;;;;;4985803;28;20121;-55
2021/09/01 02:49:54;;;;;;;12.05;2.50;;;;;;;;;;4977887;28;20046;-55
2021/09/01 02:52:22;;;;;;;10.65;2.80;;;;;;;;;;4967071;28;20042;-53
2021/09/01 02:54:49;;;;;;;19.48;2.70;;;;;;;;;;4974373;28;20043;-55
2021/09/01 02:57:15;;;;;;;10.70;2.83;;;;;;;;;;5005304;28;20136;-54
2021/09/01 02:59:42;;;;;;;14.98;2.50;;;;;;;;;;5000593;28;20115;-55
2021/09/01 03:02:08;;;;;;;14.65;2.85;;;;;;;;;;4966106;28;20043;-56
2021/09/01 03:04:35;;;;;;;11.60;2.40;;;;;;;;;;4953044;28;20039;-55
2021/09/01 03:07:01;;;;;;;9.77;2.38;;;;;;;;;;4979421;28;20046;-55
2021/09/01 03:09:29;;;;;;;13.48;2.53;;;;;;;;;;4981188;28;20066;-56
2021/09/01 03:11:56;;;;;;;16.33;2.63;;;;;;;;;;4969358;28;20037;-55
2021/09/01 03:14:22;;;;;;;13.95;2.92;;;;;;;;;;4981678;28;20125;-55
2021/09/01 03:16:49;;;;;;;15.98;2.60;;;;;;;;;;4969309;28;20054;-53
2021/09/01 03:19:15;;;;;;;10.05;2.50;;;;;;;;;;4966890;28;20035;-54
2021/09/01 03:21:42;;;;;;;16.02;2.55;;;;;;;;;;4962265;28;20063;-53
2021/09/01 03:24:08;;;;;;;14.43;2.28;;;;;;;;;;4966759;28;20046;-55
2021/09/01 03:26:36;;;;;;;8.95;2.53;;;;;;;;;;4966850;28;20050;-56
2021/09/01 03:29:03;;;;;;;12.55;2.45;;;;;;;;;;4979864;28;20116;-54
2021/09/01 03:31:29;;;;;;;18.45;2.30;;;;;;;;;;4975823;28;20133;-55
2021/09/01 03:33:56;;;;;;;14.85;2.80;;;;;;;;;;4962657;28;20046;-56
2021/09/01 03:36:22;;;;;;;15.82;2.10;;;;;;;;;;4960358;28;20042;-56
2021/09/01 03:38:49;;;;;;;17.02;3.08;;;;;;;;;;4964852;28;20046;-57
2021/09/01 03:41:15;;;;;;;9.57;2.33;;;;;;;;;;4963179;28;20050;-55
2021/09/01 03:43:43;;;;;;;10.32;2.25;;;;;;;;;;4981090;28;20047;-55
2021/09/01 03:46:10;;;;;;;9.63;2.55;;;;;;;;;;4981486;28;20146;-56
2021/09/01 03:48:37;;;;;;;10.57;2.30;;;;;;;;;;4963550;28;20046;-54
2021/09/01 03:51:04;;;;;;;14.95;2.42;;;;;;;;;;4966097;28;20054;-56
2021/09/01 03:53:30;;;;;;;7.72;2.00;;;;;;;;;;4973470;28;20122;-56
2021/09/01 03:55:57;;;;;;;8.70;2.13;;;;;;;;;;4954040;28;20053;-54
2021/09/01 03:58:24;;;;;;;15.45;2.80;;;;;;;;;;4962726;28;20054;-55
2021/09/01 04:00:52;;;;;;;13.13;2.40;;;;;;;;;;4966033;28;20116;-55
2021/09/01 04:03:18;;;;;;;12.45;2.30;;;;;;;;;;4960185;28;20129;-56
2021/09/01 04:05:45;;;;;;;11.20;2.25;;;;;;;;;;4964471;28;20030;-56
2021/09/01 04:08:12;;;;;;;13.43;2.30;;;;;;;;;;4966787;28;20074;-55
2021/09/01 04:10:39;;;;;;;10.40;2.80;;;;;;;;;;4977716;28;20042;-56
2021/09/01 04:13:05;;;;;;;7.55;2.15;;;;;;;;;;4979481;28;20101;-53
2021/09/01 04:15:31;;;;;;;12.27;2.45;;;;;;;;;;4966204;28;20039;-53
2021/09/01 04:17:59;;;;;;;15.88;2.60;;;;;;;;;;4961071;28;20106;-55
2021/09/01 04:20:26;;;;;;;9.82;2.53;;;;;;;;;;4967518;28;20043;-55
2021/09/01 04:22:52;;;;;;;8.55;2.25;;;;;;;;;;4965384;28;20117;-54
2021/09/01 04:25:19;;;;;;;9.35;2.30;;;;;;;;;;4947254;28;20063;-54
2021/09/01 04:27:46;;;;;;;11.50;2.58;;;;;;;;;;4946387;28;20043;-54
2021/09/01 04:30:13;;;;;;;12.23;2.75;;;;;;;;;;4942328;28;20035;-55
2021/09/01 04:32:39;;;;;;;15.38;2.30;;;;;;;;;;4963606;28;20120;-57
2021/09/01 04:35:08;;;;;;;9.75;2.45;;;;;;;;;;4953082;28;20051;-53
2021/09/01 04:37:34;;;;;;;11.00;2.30;;;;;;;;;;4960945;28;20043;-54
2021/09/01 04:40:01;;;;;;;16.58;2.83;;;;;;;;;;4959223;28;20051;-55
2021/09/01 04:42:28;;;;;;;11.48;2.55;;;;;;;;;;4944433;28;20093;-54
2021/09/01 04:44:54;;;;;;;12.65;2.53;;;;;;;;;;4970300;28;20047;-54
2021/09/01 04:47:21;;;;;;;14.45;2.65;;;;;;;;;;4965102;28;20102;-55
2021/09/01 04:49:48;;;;;;;7.38;2.67;;;;;;;;;;4961355;28;20051;-56
2021/09/01 04:52:18;;;;;;;12.90;2.50;;;;;;;;;;4982176;28;20041;-51
2021/09/01 04:54:44;;;;;;;16.90;2.70;;;;;;;;;;4960395;28;20131;-53
2021/09/01 04:57:12;;;;;;;11.45;2.25;;;;;;;;;;4982390;28;20042;-55
2021/09/01 04:59:39;;;;;;;11.40;2.72;;;;;;;;;;4959631;28;20087;-53
2021/09/01 05:02:05;;;;;;;7.85;2.15;;;;;;;;;;4983330;28;20063;-54
2021/09/01 05:04:32;;;;;;;15.57;2.72;;;;;;;;;;4961727;28;20047;-56
2021/09/01 05:06:58;;;;;;;14.13;2.70;;;;;;;;;;4965494;28;20046;-54
2021/09/01 05:09:26;;;;;;;10.15;3.00;;;;;;;;;;4962956;28;20053;-56
2021/09/01 05:11:52;;;;;;;14.13;3.53;;;;;;;;;;4961737;28;20050;-56
2021/09/01 05:14:19;;;;;;;15.73;3.50;;;;;;;;;;4966853;28;20288;-54
2021/09/01 05:16:45;;;;;;;11.77;2.58;;;;;;;;;;4964821;28;20050;-53
2021/09/01 05:19:12;;;;;;;8.32;2.35;;;;;;;;;;4966036;28;20054;-55
2021/09/01 05:21:42;;;;;;;11.50;2.63;;;;;;;;;;4980407;28;20103;-54
2021/09/01 05:24:09;;;;;;;12.02;2.67;;;;;;;;;;4968096;28;20145;-54
2021/09/01 05:26:38;;;;;;;20.20;2.80;;;;;;;;;;4964841;28;20094;-54
2021/09/01 05:29:06;;;;;;;11.48;2.60;;;;;;;;;;4967022;28;20042;-55
2021/09/01 05:31:32;;;;;;;13.07;2.97;;;;;;;;;;4960948;28;20046;-55
2021/09/01 05:34:01;;;;;;;14.55;3.10;;;;;;;;;;4983516;28;20126;-54
2021/09/01 05:36:27;;;;;;;17.20;3.05;;;;;;;;;;4979205;28;20042;-55
2021/09/01 05:38:55;;;;;;;9.35;2.63;;;;;;;;;;4968208;28;20141;-55
2021/09/01 05:41:22;;;;;;;20.77;4.47;;;;;;;;;;4963109;28;20043;-55
2021/09/01 05:43:51;;;;;;;13.20;3.55;;;;;;;;;;4982950;28;20054;-54
2021/09/01 05:46:19;;;;;;;11.73;3.45;;;;;;;;;;4972948;28;20111;-55
2021/09/01 05:48:46;;;;;;;10.25;2.85;;;;;;;;;;4967855;28;20042;-53
2021/09/01 05:51:13;;;;;;;10.38;3.05;;;;;;;;;;4967156;28;20042;-55
2021/09/01 05:53:39;;;;;;;9.63;3.00;;;;;;;;;;4965477;28;20053;-52
2021/09/01 05:56:07;;;;;;;14.55;3.25;;;;;;;;;;4966984;28;20082;-54
2021/09/01 05:58:34;;;;;;;8.57;2.70;;;;;;;;;;4982086;28;20078;-52
2021/09/01 06:01:03;;;;;;;11.63;2.80;;;;;;;;;;4967536;28;20280;-55
2021/09/01 06:03:31;;;;;;;16.17;4.35;;;;;;;;;;4969898;28;20038;-55
2021/09/01 06:06:00;;;;;;;18.00;4.25;;;;;;;;;;4985519;28;20094;-55
2021/09/01 06:08:30;;;;;;;13.23;3.38;;;;;;;;;;4982490;28;20148;-54
2021/09/01 06:10:58;;;;;;;10.95;3.45;;;;;;;;;;5001097;28;20046;-54
2021/09/01 06:13:25;;;;;;;14.82;3.45;;;;;;;;;;4987613;28;20030;-55
2021/09/01 06:15:51;;;;;;;13.63;3.38;;;;;;;;;;5000954;28;20108;-52
2021/09/01 06:18:19;;;;;;;17.70;3.53;;;;;;;;;;4998649;28;20038;-54
2021/09/01 06:20:46;;;;;;;19.55;4.03;;;;;;;;;;5002640;28;20042;-55
2021/09/01 06:23:15;;;;;;;13.73;3.47;;;;;;;;;;4998925;28;20034;-54
2021/09/01 06:25:44;;;;;;;12.25;3.35;;;;;;;;;;4999744;28;20046;-55
2021/09/01 06:28:12;;;;;;;12.30;3.58;;;;;;;;;;4998418;28;20045;-54
2021/09/01 06:30:38;;;;;;;12.00;3.93;;;;;;;;;;5001578;28;20436;-53
2021/09/01 06:33:07;;;;;;;23.17;3.53;;;;;;;;;;4998690;28;20046;-55
2021/09/01 06:35:35;;;;;;;12.93;3.35;;;;;;;;;;5001386;28;20034;-55
2021/09/01 06:38:01;;;;;;;16.27;3.00;;;;;;;;;;5001186;28;20042;-52
2021/09/01 06:40:28;;;;;;;13.05;3.17;;;;;;;;;;4997941;28;20042;-50
2021/09/01 06:42:54;;;;;;;14.20;3.42;;;;;;;;;;5020172;28;20049;-52
2021/09/01 06:45:21;;;;;;;9.73;3.08;;;;;;;;;;5015402;28;20089;-55
2021/09/01 06:47:49;;;;;;;14.13;3.03;;;;;;;;;;5002485;28;20034;-55
2021/09/01 06:50:17;;;;;;;13.95;3.33;;;;;;;;;;5004230;28;20116;-52
2021/09/01 06:52:46;;;;;;;14.77;3.20;;;;;;;;;;5004177;28;20038;-53
2021/09/01 06:55:13;;;;;;;17.50;3.50;;;;;;;;;;5000660;28;20049;-54
2021/09/01 06:57:45;;;;;;;12.85;3.10;;;;;;;;;;4986697;28;20050;-53
2021/09/01 07:00:16;;;;;;;13.70;3.40;;;;;;;;;;4981999;28;20037;-49
2021/09/01 07:02:42;;;;;;;13.82;3.33;;;;;;;;;;4978584;28;20085;-55
2021/09/01 07:05:11;;;;;;;13.70;3.08;;;;;;;;;;4999284;28;20038;-54
2021/09/01 07:07:38;;;;;;;15.93;3.40;;;;;;;;;;5001396;28;20097;-52
2021/09/01 07:10:06;;;;;;;16.50;2.95;;;;;;;;;;4997800;28;20046;-54
2021/09/01 07:12:32;;;;;;;10.98;2.90;;;;;;;;;;4986260;28;20042;-54
2021/09/01 07:14:59;;;;;;;17.48;3.35;;;;;;;;;;4982723;28;20105;-56
2021/09/01 07:17:25;;;;;;;12.80;3.30;;;;;;;;;;5002454;28;20042;-55
2021/09/01 07:19:52;;;;;;;13.88;3.70;;;;;;;;;;5014097;28;20053;-53
2021/09/01 07:22:18;;;;;;;14.20;3.00;;;;;;;;;;4998084;28;20031;-53
2021/09/01 07:24:45;;;;;;;14.10;3.50;;;;;;;;;;4983744;28;20154;-54
2021/09/01 07:27:14;;;;;;;13.95;2.88;;;;;;;;;;4977529;28;20093;-55
2021/09/01 07:29:40;;;;;;;12.43;2.88;;;;;;;;;;4985228;28;20045;-54
2021/09/01 07:32:07;;;;;;;11.30;3.10;;;;;;;;;;5013653;28;20177;-54
2021/09/01 07:34:33;;;;;;;10.85;2.85;;;;;;;;;;5004942;28;20052;-56
2021/09/01 07:37:00;;;;;;;13.38;2.85;;;;;;;;;;4987886;28;20077;-54
2021/09/01 07:39:26;;;;;;;16.45;3.25;;;;;;;;;;4984115;28;20109;-52
2021/09/01 07:41:52;;;;;;;12.77;2.72;;;;;;;;;;4989599;28;20134;-53
2021/09/01 07:44:20;;;;;;;8.88;3.03;;;;;;;;;;5001087;28;20048;-50
2021/09/01 07:46:47;;;;;;;10.70;3.20;;;;;;;;;;4999087;28;20050;-54
2021/09/01 07:49:15;;;;;;;15.73;3.42;;;;;;;;;;4985570;28;20148;-53
2021/09/01 07:51:42;;;;;;;;;;;;;;;;;;4981440;28;20054;-55
2021/09/01 07:54:08;;;;;;;16.15;2.92;;;;;;;;;;4980275;28;20095;-52
2021/09/01 07:56:35;;;;;;;12.95;2.90;;;;;;;;;;4980794;28;20097;-55
2021/09/01 07:59:01;;;;;;;12.48;2.80;;;;;;;;;;4985172;28;20046;-56
2021/09/01 08:01:29;;;;;;;10.82;2.50;;;;;;;;;;4981143;28;20037;-55
2021/09/01 08:03:56;;;;;;;15.43;3.15;;;;;;;;;;4975719;28;20097;-55
2021/09/01 08:06:22;;;;;;;8.73;2.78;;;;;;;;;;4966212;28;20049;-56
2021/09/01 08:08:51;;;;;;;14.45;3.03;;;;;;;;;;4959130;28;20062;-55
2021/09/01 08:11:18;;;;;;;12.73;2.90;;;;;;;;;;4961928;28;20027;-56
2021/09/01 08:13:44;;;;;;;13.82;2.63;;;;;;;;;;4958972;28;20059;-56
2021/09/01 08:16:10;;;;;;;16.30;3.10;;;;;;;;;;4961443;28;20122;-55
2021/09/01 08:18:38;;;;;;;13.40;2.95;;;;;;;;;;4970351;28;20042;-54
2021/09/01 08:21:05;;;;;;;10.23;2.35;;;;;;;;;;4982720;28;20031;-53
2021/09/01 08:23:31;;;;;;;9.45;2.10;;;;;;;;;;4967577;28;20043;-55
2021/09/01 08:25:58;;;;;;;11.52;2.42;;;;;;;;;;4961867;28;20051;-53
2021/09/01 08:28:25;;;;;;;10.65;2.38;;;;;;;;;;4965609;28;20030;-54
2021/09/01 08:30:51;;;;;;;9.02;2.25;;;;;;;;;;4984280;28;20046;-56
2021/09/01 08:33:17;;;;;;;12.30;2.53;;;;;;;;;;4972894;28;20050;-56
2021/09/01 08:35:45;;;;;;;15.55;2.60;;;;;;;;;;4964625;28;20058;-53
2021/09/01 08:38:13;;;;;;;9.20;2.03;;;;;;;;;;4959067;28;20043;-53
2021/09/01 08:40:40;;;;;;;12.15;2.70;;;;;;;;;;4960722;28;20163;-55
2021/09/01 08:43:07;;;;;;;8.77;2.58;;;;;;;;;;4960177;28;20075;-56
2021/09/01 08:45:33;;;;;;;12.90;2.78;;;;;;;;;;4962016;28;20051;-53
2021/09/01 08:48:01;;;;;;;10.38;2.72;;;;;;;;;;4961589;28;20063;-56
2021/09/01 08:50:28;;;;;;;11.10;2.47;;;;;;;;;;4960598;28;20042;-56
2021/09/01 08:52:56;;;;;;;13.75;2.90;;;;;;;;;;4955001;28;20051;-55
2021/09/01 08:55:23;;;;;;;9.77;2.35;;;;;;;;;;4976215;28;20043;-54
2021/09/01 08:57:49;;;;;;;12.55;2.33;;;;;;;;;;4982627;28;20046;-52
2021/09/01 09:00:16;;;;;;;11.07;2.47;;;;;;;;;;4959701;28;20039;-56
2021/09/01 09:02:52;;;;;;;10.18;2.30;;;;;;;;;;4977641;28;20045;-54
2021/09/01 09:05:25;;;;;;;8.82;2.33;;;;;;;;;;4979926;28;20038;-56
2021/09/01 09:08:04;;;;;;;13.02;2.63;;;;;;;;;;4987241;28;20054;-54
2021/09/01 09:10:32;;;;;;;15.80;2.60;;;;;;;;;;4989754;28;20042;-52
2021/09/01 09:13:01;;;;;;;8.80;2.40;;;;;;;;;;5004699;28;20042;-55
2021/09/01 09:15:28;;;;;;;11.27;3.05;;;;;;;;;;4982590;28;20078;-54
2021/09/01 09:17:55;;;;;;;14.10;2.70;;;;;;;;;;4987703;28;20050;-55
2021/09/01 09:20:27;;;;;;;11.60;2.67;;;;;;;;;;4983286;28;20116;-55
2021/09/01 09:22:53;;;;;;;14.73;2.65;;;;;;;;;;4987532;28;20127;-51
2021/09/01 09:25:23;;;;;;;11.40;2.80;;;;;;;;;;4982248;28;20038;-56
2021/09/01 09:27:50;;;;;;;11.13;2.72;;;;;;;;;;5001770;28;20057;-55
2021/09/01 09:30:41;;;;;;;12.45;2.42;;;;;;;;;;4980648;28;20098;-56
2021/09/01 09:33:09;;;;;;;7.60;2.17;;;;;;;;;;4982818;28;20083;-56
2021/09/01 09:35:54;;;;;;;15.63;2.90;;;;;;;;;;4980549;28;20066;-54
2021/09/01 09:38:34;;;;;;;9.95;2.42;;;;;;;;;;4984708;28;20053;-56
2021/09/01 09:41:03;;;;;;;11.05;2.28;;;;;;;;;;4987517;28;20038;-53
2021/09/01 09:43:30;;;;;;;14.48;3.35;;;;;;;;;;5024506;28;20049;-54
2021/09/01 09:46:02;;;;;;;8.23;2.70;;;;;;;;;;4987705;28;20042;-55
2021/09/01 09:48:29;;;;;;;14.73;2.55;;;;;;;;;;4983466;28;20053;-55
2021/09/01 09:50:55;;;;;;;13.65;2.90;;;;;;;;;;4980253;28;20063;-53
2021/09/01 09:53:37;;;;;;;11.55;2.65;;;;;;;;;;4967819;28;20045;-55
2021/09/01 09:56:06;;;;;;;10.80;2.35;;;;;;;;;;4965148;28;20051;-56
2021/09/01 09:58:35;;;;;;;12.75;2.80;;;;;;;;;;4987312;28;20049;-56
2021/09/01 10:01:03;;;;;;;17.20;3.17;;;;;;;;;;5002127;28;20038;-53
2021/09/01 10:03:29;;;;;;;;;;;;;;;;;;4962318;28;20103;-56
2021/09/01 10:05:56;;;;;;;11.60;2.70;;;;;;;;;;4947407;28;19918;-53
2021/09/01 10:08:22;;;;;;;14.93;2.50;;;;;;;;;;4962029;28;20059;-55
2021/09/01 10:10:49;;;;;;;12.98;2.60;;;;;;;;;;4971560;28;20034;-56
2021/09/01 10:13:17;;;;;;;11.18;2.60;;;;;;;;;;4964680;28;20133;-55
2021/09/01 10:15:44;;;;;;;9.80;2.83;;;;;;;;;;4963518;28;20043;-56
2021/09/01 10:18:11;;;;;;;15.88;2.90;;;;;;;;;;4960480;28;20047;-56
2021/09/01 10:20:42;;;;;;;15.43;2.70;;;;;;;;;;4965432;28;20049;-55
2021/09/01 10:23:09;;;;;;;9.52;2.47;;;;;;;;;;4960728;28;20046;-56
2021/09/01 10:25:36;;;;;;;9.07;2.58;;;;;;;;;;4964396;28;20043;-55
2021/09/01 10:28:23;;;;;;;13.38;2.40;;;;;;;;;;4959565;28;20086;-54
2021/09/01 10:31:04;;;;;;;10.57;2.80;;;;;;;;;;4964022;28;20050;-55
2021/09/01 10:33:41;;;;;;;9.07;2.03;;;;;;;;;;4969490;28;20062;-53
2021/09/01 10:36:22;;;;;;;12.27;2.40;;;;;;;;;;4982831;28;20053;-56
2021/09/01 10:38:48;;;;;;;12.23;2.58;;;;;;;;;;4970525;28;20051;-56
2021/09/01 10:41:26;;;;;;;13.65;2.22;;;;;;;;;;4964305;28;20046;-55
2021/09/01 10:43:54;;;;;;;12.53;2.47;;;;;;;;;;4972081;28;20054;-55
2021/09/01 10:46:21;;;;;;;10.93;2.40;;;;;;;;;;4983957;28;20038;-56
2021/09/01 10:49:00;;;;;;;13.15;2.28;;;;;;;;;;4971693;28;20039;-56
2021/09/01 10:51:27;;;;;;;8.70;2.47;;;;;;;;;;4960380;28;20039;-56
2021/09/01 10:53:53;;;;;;;12.18;2.60;;;;;;;;;;4959021;28;20042;-56
2021/09/01 10:56:20;;;;;;;9.02;2.13;;;;;;;;;;4977245;28;20047;-55
2021/09/01 10:58:48;;;;;;;13.43;2.75;;;;;;;;;;4963731;28;20054;-56
2021/09/01 11:01:16;;;;;;;9.35;1.98;;;;;;;;;;4982685;28;20061;-55
2021/09/01 11:03:43;;;;;;;10.75;2.40;;;;;;;;;;4974959;28;21414;-54
2021/09/01 11:06:16;;;;;;;13.52;2.28;;;;;;;;;;4947527;28;20043;-56
2021/09/01 11:09:10;;;;;;;6.90;1.88;;;;;;;;;;4945272;28;20070;-56
2021/09/01 11:11:50;;;;;;;9.20;2.13;;;;;;;;;;4960058;28;20097;-53
2021/09/01 11:14:30;;;;;;;9.00;2.25;;;;;;;;;;4959320;28;20101;-56
2021/09/01 11:16:58;;;;;;;11.73;2.30;;;;;;;;;;4947323;28;20071;-57
2021/09/01 11:19:24;;;;;;;9.43;2.35;;;;;;;;;;4945381;28;20054;-57
2021/09/01 11:21:52;;;;;;;17.88;2.47;;;;;;;;;;4966194;28;20056;-56
2021/09/01 11:24:20;;;;;;;12.35;2.00;;;;;;;;;;4958716;28;20034;-56
2021/09/01 11:26:52;;;;;;;8.35;1.92;;;;;;;;;;4947164;28;20050;-57
2021/09/01 11:29:18;;;;;;;13.88;2.40;;;;;;;;;;4963482;28;20058;-56
2021/09/01 11:31:52;;;;;;;9.20;2.15;;;;;;;;;;4949284;28;20053;-54
2021/09/01 11:34:18;;;;;;;8.68;2.00;;;;;;;;;;4946487;28;20133;-56
2021/09/01 11:36:45;;;;;;;10.38;2.25;;;;;;;;;;4979011;28;20154;-56
2021/09/01 11:39:13;;;;;;;7.85;2.00;;;;;;;;;;4966479;28;20035;-56
2021/09/01 11:41:40;;;;;;;12.13;1.90;;;;;;;;;;4940509;28;20120;-57
2021/09/01 11:44:07;;;;;;;7.63;1.58;;;;;;;;;;4940318;28;20117;-57
2021/09/01 11:46:35;;;;;;;6.30;2.17;;;;;;;;;;4955718;28;20094;-56
2021/09/01 11:49:07;;;;;;;9.38;2.35;;;;;;;;;;4965331;28;20054;-55
2021/09/01 11:51:34;;;;;;;9.13;1.75;;;;;;;;;;4951844;28;20057;-57
2021/09/01 11:54:00;;;;;;;10.00;2.00;;;;;;;;;;4945608;28;20039;-57
2021/09/01 11:56:29;;;;;;;6.00;1.70;;;;;;;;;;4943954;28;20051;-55
2021/09/01 11:59:00;;;;;;;10.73;1.92;;;;;;;;;;4946036;28;20054;-56
2021/09/01 12:01:27;;;;;;;10.77;1.80;;;;;;;;;;4965122;28;20086;-56
2021/09/01 12:03:53;;;;;;;10.68;2.17;;;;;;;;;;4971504;28;20041;-56
2021/09/01 12:06:20;;;;;;;22.45;2.50;;;;;;;;;;4979996;28;20078;-57
2021/09/01 12:08:47;;;;;;;11.93;2.38;;;;;;;;;;4981288;28;20059;-57
2021/09/01 12:11:14;;;;;;;12.23;2.10;;;;;;;;;;4971223;28;20121;-56
2021/09/01 12:13:42;;;;;;;11.75;2.40;;;;;;;;;;5003591;28;20046;-56
2021/09/01 12:16:09;;;;;;;7.97;2.33;;;;;;;;;;5005740;28;20040;-55
2021/09/01 12:18:52;;;;;;;16.40;1.95;;;;;;;;;;4983097;28;20034;-58
2021/09/01 12:21:19;;;;;;;11.52;2.20;;;;;;;;;;4983578;28;20062;-57
2021/09/01 12:23:45;;;;;;;7.35;1.83;;;;;;;;;;4999777;28;20120;-57
2021/09/01 12:26:17;;;;;;;9.40;1.90;;;;;;;;;;5008339;28;20041;-57
2021/09/01 12:28:47;;;;;;;11.20;2.10;;;;;;;;;;4968854;28;20043;-57
2021/09/01 12:31:21;;;;;;;15.93;2.53;;;;;;;;;;4967996;28;20067;-56
2021/09/01 12:33:47;;;;;;;9.98;2.63;;;;;;;;;;5011882;28;20057;-57
2021/09/01 12:36:22;;;;;;;9.07;2.30;;;;;;;;;;5007708;28;20049;-57
2021/09/01 12:38:51;;;;;;;7.75;2.50;;;;;;;;;;4988257;28;20042;-55
2021/09/01 12:41:21;;;;;;;7.43;2.05;;;;;;;;;;4987635;28;20046;-57
2021/09/01 12:43:48;;;;;;;9.25;2.42;;;;;;;;;;4971228;28;20099;-57
2021/09/01 12:46:22;;;;;;;8.30;2.35;;;;;;;;;;4968318;28;20019;-58
2021/09/01 12:48:48;;;;;;;7.53;2.55;;;;;;;;;;4965250;28;20043;-58
2021/09/01 12:51:15;;;;;;;8.50;2.15;;;;;;;;;;4966807;28;20074;-57
2021/09/01 12:53:41;;;;;;;10.73;2.50;;;;;;;;;;4982427;28;20043;-57
2021/09/01 12:56:09;;;;;;;14.80;2.42;;;;;;;;;;5018578;28;20033;-58
2021/09/01 12:58:36;;;;;;;9.90;2.43;;;;;;;;;;4991373;28;20042;-56
2021/09/01 13:01:03;;;;;;;8.25;2.13;;;;;;;;;;4967015;28;20045;-57
2021/09/01 13:03:31;;;;;;;7.88;2.50;;;;;;;;;;4983851;28;20061;-58
2021/09/01 13:05:58;;;;;;;11.50;2.53;;;;;;;;;;5003405;28;20044;-58
2021/09/01 13:08:24;;;;;;;9.52;2.05;;;;;;;;;;5000621;28;20042;-57
2021/09/01 13:10:51;;;;;;;7.90;1.90;;;;;;;;;;4978983;28;20042;-58
2021/09/01 13:13:17;;;;;;;7.35;2.03;;;;;;;;;;4967451;28;20042;-57
2021/09/01 13:15:44;;;;;;;7.60;2.20;;;;;;;;;;4980672;28;20046;-58
2021/09/01 13:18:12;;;;;;;12.65;2.20;;;;;;;;;;5005559;28;20039;-57
2021/09/01 13:20:38;;;;;;;10.43;1.77;;;;;;;;;;4984477;28;20049;-57
2021/09/01 13:23:04;;;;;;;8.75;1.95;;;;;;;;;;4988251;28;20064;-56
2021/09/01 13:25:31;;;;;;;7.85;1.85;;;;;;;;;;4992493;28;20038;-57
2021/09/01 13:27:58;;;;;;;8.88;2.28;;;;;;;;;;5002206;28;20086;-58
2021/09/01 13:30:24;;;;;;;9.80;2.25;;;;;;;;;;4988928;28;20053;-58
2021/09/01 13:32:51;;;;;;;5.65;1.85;;;;;;;;;;4986963;28;20185;-58
2021/09/01 13:35:19;;;;;;;6.55;1.77;;;;;;;;;;5000985;28;20042;-57
2021/09/01 13:37:45;;;;;;;6.80;1.95;;;;;;;;;;5004395;28;20061;-55
2021/09/01 13:40:12;;;;;;;7.43;1.95;;;;;;;;;;4996436;28;20185;-56
2021/09/01 13:42:38;;;;;;;6.50;1.80;;;;;;;;;;4987609;28;20050;-57
2021/09/01 13:45:06;;;;;;;8.50;2.05;;;;;;;;;;4984125;28;20042;-58
2021/09/01 13:47:32;;;;;;;7.20;1.75;;;;;;;;;;5002114;28;20123;-56
2021/09/01 13:49:59;;;;;;;5.55;1.50;;;;;;;;;;5001757;28;20042;-57
2021/09/01 13:52:26;;;;;;;6.38;1.83;;;;;;;;;;4984095;28;20045;-55
2021/09/01 13:54:53;;;;;;;6.22;2.03;;;;;;;;;;4969227;28;20054;-56
2021/09/01 13:57:21;;;;;;;6.05;1.63;;;;;;;;;;5000958;28;20038;-58
2021/09/01 13:59:48;;;;;;;5.97;1.90;;;;;;;;;;5002714;28;20141;-57
2021/09/01 14:02:16;;;;;;;11.30;1.90;;;;;;;;;;4980529;28;20291;-58
2021/09/01 14:04:43;;;;;;;8.48;1.90;;;;;;;;;;4995434;28;20039;-57
2021/09/01 14:07:09;;;;;;;5.88;1.85;;;;;;;;;;4969205;28;20053;-57
2021/09/01 14:09:37;;;;;;;5.93;1.77;;;;;;;;;;4966245;28;20070;-58
2021/09/01 14:12:04;;;;;;;7.28;1.92;;;;;;;;;;4984944;28;20058;-57
2021/09/01 14:14:30;;;;;;;7.28;1.80;;;;;;;;;;4981999;28;20062;-55
2021/09/01 14:16:57;;;;;;;6.40;2.10;;;;;;;;;;4973221;28;20042;-57
2021/09/01 14:19:24;;;;;;;8.40;1.60;;;;;;;;;;4984825;28;20043;-57
2021/09/01 14:21:50;;;;;;;6.80;1.80;;;;;;;;;;4969433;28;20039;-57
2021/09/01 14:24:17;;;;;;;5.88;1.50;;;;;;;;;;5002244;28;20053;-57
2021/09/01 14:26:45;;;;;;;8.80;1.88;;;;;;;;;;4984904;28;20078;-58
2021/09/01 14:29:12;;;;;;;3.83;1.55;;;;;;;;;;5006279;28;20042;-57
2021/09/01 14:31:39;;;;;;;3.58;1.42;;;;;;;;;;5000751;28;20054;-56
2021/09/01 14:34:05;;;;;;;9.18;1.80;;;;;;;;;;4981167;28;20050;-57
2021/09/01 14:36:32;;;;;;;5.90;1.75;;;;;;;;;;4983830;28;20042;-57